Аэропорт: Нальчик. Нальчик

ICAO: URMN

METAR:
2019/01/21 23:00
URMN 212300Z 00000MPS 1500 R24/1500 BR BKN005 M03/M04 Q1012 R24/////// NOSIG RMK MT OBSC OBST OBSC QFE723
METAR:
2018/11/19 18:33
TAF 
      AMD TAF 
      AMD URMN 191805Z 1918/2006 06003MPS 0400 FG OVC002 
      TEMPO 1918/2003 1000 BR OVC004